sensor_id;sensor_type;location;lat;lon;timestamp;temperature;humidity
26051;DHT22;13825;53.496;10.020;2023-04-15T03:12:58;7.40;99.90
26051;DHT22;13825;53.496;10.020;2023-04-15T03:15:31;7.50;99.90
26051;DHT22;13825;53.496;10.020;2023-04-15T03:17:58;7.50;99.90
26051;DHT22;13825;53.496;10.020;2023-04-15T03:20:26;7.40;99.90
26051;DHT22;13825;53.496;10.020;2023-04-15T03:22:53;7.40;99.90
26051;DHT22;13825;53.496;10.020;2023-04-15T03:25:22;7.50;99.90
26051;DHT22;13825;53.496;10.020;2023-04-15T03:27:49;7.50;99.90
26051;DHT22;13825;53.496;10.020;2023-04-15T03:30:21;7.50;99.90
26051;DHT22;13825;53.496;10.020;2023-04-15T03:32:48;7.50;99.90
26051;DHT22;13825;53.496;10.020;2023-04-15T03:35:16;7.50;99.90
26051;DHT22;13825;53.496;10.020;2023-04-15T03:37:44;7.50;99.90
26051;DHT22;13825;53.496;10.020;2023-04-15T03:40:20;7.50;99.90
26051;DHT22;13825;53.496;10.020;2023-04-15T03:42:52;7.40;99.90
26051;DHT22;13825;53.496;10.020;2023-04-15T03:45:21;7.40;99.90
26051;DHT22;13825;53.496;10.020;2023-04-15T03:47:50;7.50;99.90
26051;DHT22;13825;53.496;10.020;2023-04-15T03:50:25;7.70;99.90
26051;DHT22;13825;53.496;10.020;2023-04-15T03:53:09;7.50;99.90
26051;DHT22;13825;53.496;10.020;2023-04-15T03:55:36;7.50;99.90
26051;DHT22;13825;53.496;10.020;2023-04-15T03:58:09;7.50;99.90
26051;DHT22;13825;53.496;10.020;2023-04-15T04:00:39;7.60;99.90
26051;DHT22;13825;53.496;10.020;2023-04-15T04:03:07;7.50;99.90
26051;DHT22;13825;53.496;10.020;2023-04-15T04:05:39;7.50;99.90
26051;DHT22;13825;53.496;10.020;2023-04-15T04:08:09;7.60;99.90
26051;DHT22;13825;53.496;10.020;2023-04-15T04:10:38;7.50;99.90
26051;DHT22;13825;53.496;10.020;2023-04-15T04:13:05;7.60;99.90
26051;DHT22;13825;53.496;10.020;2023-04-15T04:15:33;7.60;99.90
26051;DHT22;13825;53.496;10.020;2023-04-15T04:18:10;7.60;99.90
26051;DHT22;13825;53.496;10.020;2023-04-15T04:20:37;7.60;99.90
26051;DHT22;13825;53.496;10.020;2023-04-15T04:23:07;7.60;99.90
26051;DHT22;13825;53.496;10.020;2023-04-15T04:25:34;7.60;99.90
26051;DHT22;13825;53.496;10.020;2023-04-15T04:28:03;7.60;99.90
26051;DHT22;13825;53.496;10.020;2023-04-15T04:30:36;7.60;99.90
26051;DHT22;13825;53.496;10.020;2023-04-15T04:33:17;7.50;99.90
26051;DHT22;13825;53.496;10.020;2023-04-15T04:35:49;7.60;99.90
26051;DHT22;13825;53.496;10.020;2023-04-15T04:38:20;7.50;99.90
26051;DHT22;13825;53.496;10.020;2023-04-15T04:40:51;7.60;99.90
26051;DHT22;13825;53.496;10.020;2023-04-15T04:43:37;7.50;99.90
26051;DHT22;13825;53.496;10.020;2023-04-15T04:46:08;7.60;99.90
26051;DHT22;13825;53.496;10.020;2023-04-15T04:48:45;7.60;99.90
26051;DHT22;13825;53.496;10.020;2023-04-15T04:51:15;7.50;99.90
26051;DHT22;13825;53.496;10.020;2023-04-15T04:53:42;7.60;99.90
26051;DHT22;13825;53.496;10.020;2023-04-15T04:56:10;7.70;99.90
26051;DHT22;13825;53.496;10.020;2023-04-15T04:58:37;7.70;99.90
26051;DHT22;13825;53.496;10.020;2023-04-15T05:01:05;7.60;99.90
26051;DHT22;13825;53.496;10.020;2023-04-15T05:03:32;7.60;99.90
26051;DHT22;13825;53.496;10.020;2023-04-15T05:06:00;7.70;99.90
26051;DHT22;13825;53.496;10.020;2023-04-15T05:08:30;7.70;99.90
26051;DHT22;13825;53.496;10.020;2023-04-15T05:10:57;7.70;99.90
26051;DHT22;13825;53.496;10.020;2023-04-15T05:13:25;7.70;99.90
26051;DHT22;13825;53.496;10.020;2023-04-15T08:43:14;9.10;99.90
26051;DHT22;13825;53.496;10.020;2023-04-15T15:18:42;17.20;52.90
26051;DHT22;13825;53.496;10.020;2023-04-15T15:21:12;17.80;54.80
26051;DHT22;13825;53.496;10.020;2023-04-15T15:23:43;18.00;45.30
26051;DHT22;13825;53.496;10.020;2023-04-15T15:48:00;15.60;65.10
26051;DHT22;13825;53.496;10.020;2023-04-15T15:50:33;15.50;70.60
26051;DHT22;13825;53.496;10.020;2023-04-15T15:53:03;15.00;68.60
26051;DHT22;13825;53.496;10.020;2023-04-15T15:55:36;14.70;72.40
26051;DHT22;13825;53.496;10.020;2023-04-15T16:06:21;14.00;84.10
26051;DHT22;13825;53.496;10.020;2023-04-15T16:08:49;13.90;85.20
26051;DHT22;13825;53.496;10.020;2023-04-15T16:11:26;13.80;86.90
26051;DHT22;13825;53.496;10.020;2023-04-15T16:13:54;13.70;89.20
26051;DHT22;13825;53.496;10.020;2023-04-15T16:16:21;13.40;91.00
26051;DHT22;13825;53.496;10.020;2023-04-15T16:18:51;13.30;92.40
26051;DHT22;13825;53.496;10.020;2023-04-15T16:21:18;13.10;90.10
26051;DHT22;13825;53.496;10.020;2023-04-15T16:23:53;13.00;89.50
26051;DHT22;13825;53.496;10.020;2023-04-15T16:26:24;12.80;90.40
26051;DHT22;13825;53.496;10.020;2023-04-15T16:28:51;12.70;92.10
26051;DHT22;13825;53.496;10.020;2023-04-15T16:31:18;12.70;92.30
26051;DHT22;13825;53.496;10.020;2023-04-15T16:33:45;12.60;93.80
26051;DHT22;13825;53.496;10.020;2023-04-15T16:36:14;12.50;94.70
26051;DHT22;13825;53.496;10.020;2023-04-15T16:38:43;12.50;93.90
26051;DHT22;13825;53.496;10.020;2023-04-15T16:41:16;12.40;94.80
26051;DHT22;13825;53.496;10.020;2023-04-15T16:43:43;12.30;95.70
26051;DHT22;13825;53.496;10.020;2023-04-15T16:46:11;12.30;96.50
26051;DHT22;13825;53.496;10.020;2023-04-15T16:48:45;12.30;97.30
26051;DHT22;13825;53.496;10.020;2023-04-15T16:51:13;12.40;96.90
26051;DHT22;13825;53.496;10.020;2023-04-15T16:53:43;12.30;99.40
26051;DHT22;13825;53.496;10.020;2023-04-15T16:56:17;12.10;99.00
26051;DHT22;13825;53.496;10.020;2023-04-15T16:58:53;12.20;99.90
26051;DHT22;13825;53.496;10.020;2023-04-15T17:01:23;12.30;99.90
26051;DHT22;13825;53.496;10.020;2023-04-15T17:03:50;12.20;99.90
26051;DHT22;13825;53.496;10.020;2023-04-15T17:06:18;12.20;99.90
26051;DHT22;13825;53.496;10.020;2023-04-15T17:08:45;12.20;99.90
26051;DHT22;13825;53.496;10.020;2023-04-15T17:11:12;12.10;99.90
26051;DHT22;13825;53.496;10.020;2023-04-15T17:13:42;12.00;99.90
26051;DHT22;13825;53.496;10.020;2023-04-15T17:16:13;12.00;99.90
26051;DHT22;13825;53.496;10.020;2023-04-15T17:18:46;11.90;99.90
26051;DHT22;13825;53.496;10.020;2023-04-15T17:21:15;12.00;99.90
26051;DHT22;13825;53.496;10.020;2023-04-15T17:23:45;12.00;99.90
26051;DHT22;13825;53.496;10.020;2023-04-15T17:26:13;11.90;99.90
26051;DHT22;13825;53.496;10.020;2023-04-15T17:28:43;11.90;99.90
26051;DHT22;13825;53.496;10.020;2023-04-15T17:31:14;11.80;99.90
26051;DHT22;13825;53.496;10.020;2023-04-15T17:33:43;11.60;99.90
26051;DHT22;13825;53.496;10.020;2023-04-15T17:36:14;11.60;99.90
26051;DHT22;13825;53.496;10.020;2023-04-15T17:38:41;11.60;99.90
26051;DHT22;13825;53.496;10.020;2023-04-15T17:41:11;11.50;99.90
26051;DHT22;13825;53.496;10.020;2023-04-15T17:43:44;11.50;99.90
26051;DHT22;13825;53.496;10.020;2023-04-15T17:46:12;11.50;99.90
26051;DHT22;13825;53.496;10.020;2023-04-15T17:48:47;11.50;99.90
26051;DHT22;13825;53.496;10.020;2023-04-15T17:51:18;11.40;99.90
26051;DHT22;13825;53.496;10.020;2023-04-15T17:53:49;11.40;99.90
26051;DHT22;13825;53.496;10.020;2023-04-15T17:56:49;11.30;99.90
26051;DHT22;13825;53.496;10.020;2023-04-15T17:59:42;11.40;99.90
26051;DHT22;13825;53.496;10.020;2023-04-15T18:02:25;11.20;99.90
26051;DHT22;13825;53.496;10.020;2023-04-15T18:04:55;11.30;99.90
26051;DHT22;13825;53.496;10.020;2023-04-15T18:07:27;11.20;99.90
26051;DHT22;13825;53.496;10.020;2023-04-15T18:10:08;11.20;99.90
26051;DHT22;13825;53.496;10.020;2023-04-15T18:13:00;11.20;99.90
26051;DHT22;13825;53.496;10.020;2023-04-15T18:15:32;11.20;99.90
26051;DHT22;13825;53.496;10.020;2023-04-15T18:18:03;11.00;99.90
26051;DHT22;13825;53.496;10.020;2023-04-15T18:20:39;10.90;99.90
26051;DHT22;13825;53.496;10.020;2023-04-15T18:23:33;11.00;99.90
26051;DHT22;13825;53.496;10.020;2023-04-15T18:26:05;10.90;99.90
26051;DHT22;13825;53.496;10.020;2023-04-15T18:28:37;10.90;99.90
26051;DHT22;13825;53.496;10.020;2023-04-15T18:31:13;10.90;99.90
26051;DHT22;13825;53.496;10.020;2023-04-15T18:33:41;10.80;99.90
26051;DHT22;13825;53.496;10.020;2023-04-15T18:36:13;10.70;99.90
26051;DHT22;13825;53.496;10.020;2023-04-15T18:38:46;10.60;99.90
26051;DHT22;13825;53.496;10.020;2023-04-15T18:41:14;10.60;99.90
26051;DHT22;13825;53.496;10.020;2023-04-15T18:43:42;10.60;99.90
26051;DHT22;13825;53.496;10.020;2023-04-15T18:46:11;10.60;99.90
26051;DHT22;13825;53.496;10.020;2023-04-15T18:48:42;10.60;99.90
26051;DHT22;13825;53.496;10.020;2023-04-15T18:51:21;10.50;99.90
26051;DHT22;13825;53.496;10.020;2023-04-15T18:53:55;10.50;99.90
26051;DHT22;13825;53.496;10.020;2023-04-15T18:56:25;10.60;99.90
26051;DHT22;13825;53.496;10.020;2023-04-15T18:59:07;10.50;99.90
26051;DHT22;13825;53.496;10.020;2023-04-15T19:01:36;10.30;99.90
26051;DHT22;13825;53.496;10.020;2023-04-15T19:04:04;10.30;99.90
26051;DHT22;13825;53.496;10.020;2023-04-15T19:06:51;10.30;99.90
26051;DHT22;13825;53.496;10.020;2023-04-15T19:09:29;10.20;99.90
26051;DHT22;13825;53.496;10.020;2023-04-15T19:12:01;10.20;99.90
26051;DHT22;13825;53.496;10.020;2023-04-15T19:14:51;10.10;99.90
26051;DHT22;13825;53.496;10.020;2023-04-15T19:17:37;10.10;99.90
26051;DHT22;13825;53.496;10.020;2023-04-15T19:20:15;10.00;99.90
26051;DHT22;13825;53.496;10.020;2023-04-15T19:22:50;9.90;99.90
26051;DHT22;13825;53.496;10.020;2023-04-15T19:25:19;9.70;99.90
26051;DHT22;13825;53.496;10.020;2023-04-15T19:27:49;9.70;99.90
26051;DHT22;13825;53.496;10.020;2023-04-15T19:30:17;9.70;99.90
26051;DHT22;13825;53.496;10.020;2023-04-15T19:32:52;9.70;99.90
26051;DHT22;13825;53.496;10.020;2023-04-15T19:36:12;9.70;99.90
26051;DHT22;13825;53.496;10.020;2023-04-15T19:39:20;9.70;99.90
26051;DHT22;13825;53.496;10.020;2023-04-15T20:02:09;9.50;99.90
26051;DHT22;13825;53.496;10.020;2023-04-15T20:05:07;9.60;99.90
26051;DHT22;13825;53.496;10.020;2023-04-15T20:08:17;9.50;99.90
26051;DHT22;13825;53.496;10.020;2023-04-15T20:14:27;9.50;99.90
26051;DHT22;13825;53.496;10.020;2023-04-15T20:17:19;9.30;99.90
26051;DHT22;13825;53.496;10.020;2023-04-15T20:23:13;9.20;99.90
26051;DHT22;13825;53.496;10.020;2023-04-15T20:29:19;9.10;99.90
26051;DHT22;13825;53.496;10.020;2023-04-15T20:32:13;9.10;99.90
26051;DHT22;13825;53.496;10.020;2023-04-15T20:34:41;9.00;99.90
26051;DHT22;13825;53.496;10.020;2023-04-15T20:37:21;9.00;99.90
26051;DHT22;13825;53.496;10.020;2023-04-15T20:39:54;9.00;99.90
26051;DHT22;13825;53.496;10.020;2023-04-15T20:42:23;9.00;99.90
26051;DHT22;13825;53.496;10.020;2023-04-15T20:44:53;9.00;99.90
26051;DHT22;13825;53.496;10.020;2023-04-15T20:47:31;9.10;99.90
26051;DHT22;13825;53.496;10.020;2023-04-15T20:50:00;9.00;99.90
26051;DHT22;13825;53.496;10.020;2023-04-15T20:52:38;8.90;99.90
26051;DHT22;13825;53.496;10.020;2023-04-15T20:55:17;8.90;99.90
26051;DHT22;13825;53.496;10.020;2023-04-15T21:00:57;8.90;99.90
26051;DHT22;13825;53.496;10.020;2023-04-15T21:04:00;8.90;99.90
26051;DHT22;13825;53.496;10.020;2023-04-15T21:06:35;8.80;99.90
26051;DHT22;13825;53.496;10.020;2023-04-15T21:09:26;8.70;99.90
26051;DHT22;13825;53.496;10.020;2023-04-15T21:11:54;8.70;99.90
26051;DHT22;13825;53.496;10.020;2023-04-15T21:14:44;8.70;99.90
26051;DHT22;13825;53.496;10.020;2023-04-15T21:17:22;8.70;99.90
26051;DHT22;13825;53.496;10.020;2023-04-15T21:23:36;8.60;99.90
26051;DHT22;13825;53.496;10.020;2023-04-15T21:26:27;8.60;99.90
26051;DHT22;13825;53.496;10.020;2023-04-15T21:29:16;8.60;99.90
26051;DHT22;13825;53.496;10.020;2023-04-15T21:32:07;8.50;99.90
26051;DHT22;13825;53.496;10.020;2023-04-15T21:34:38;8.50;99.90
26051;DHT22;13825;53.496;10.020;2023-04-15T21:37:15;8.40;99.90
26051;DHT22;13825;53.496;10.020;2023-04-15T21:42:49;8.30;99.90
26051;DHT22;13825;53.496;10.020;2023-04-15T21:45:19;8.30;99.90
26051;DHT22;13825;53.496;10.020;2023-04-15T21:50:35;8.20;99.90
26051;DHT22;13825;53.496;10.020;2023-04-15T21:53:11;8.10;99.90
26051;DHT22;13825;53.496;10.020;2023-04-15T21:56:08;8.20;99.90
26051;DHT22;13825;53.496;10.020;2023-04-15T21:58:59;8.30;99.90
26051;DHT22;13825;53.496;10.020;2023-04-15T22:01:27;8.20;99.90
26051;DHT22;13825;53.496;10.020;2023-04-15T22:04:00;8.20;99.90
26051;DHT22;13825;53.496;10.020;2023-04-15T22:06:37;8.20;99.90
26051;DHT22;13825;53.496;10.020;2023-04-15T22:09:30;8.20;99.90
26051;DHT22;13825;53.496;10.020;2023-04-15T22:12:01;8.20;99.90
26051;DHT22;13825;53.496;10.020;2023-04-15T22:14:48;8.10;99.90
26051;DHT22;13825;53.496;10.020;2023-04-15T22:17:20;8.10;99.90
26051;DHT22;13825;53.496;10.020;2023-04-15T22:19:54;8.10;99.90
26051;DHT22;13825;53.496;10.020;2023-04-15T22:22:48;8.00;99.90
26051;DHT22;13825;53.496;10.020;2023-04-15T22:25:18;8.10;99.90
26051;DHT22;13825;53.496;10.020;2023-04-15T22:27:47;8.10;99.90
26051;DHT22;13825;53.496;10.020;2023-04-15T22:30:17;8.10;99.90
26051;DHT22;13825;53.496;10.020;2023-04-15T22:32:44;7.90;99.90
26051;DHT22;13825;53.496;10.020;2023-04-15T22:35:15;7.90;99.90
26051;DHT22;13825;53.496;10.020;2023-04-15T22:37:47;8.00;99.90
26051;DHT22;13825;53.496;10.020;2023-04-15T22:40:18;7.90;99.90
26051;DHT22;13825;53.496;10.020;2023-04-15T22:42:49;8.00;99.90
26051;DHT22;13825;53.496;10.020;2023-04-15T22:45:19;8.00;99.90
26051;DHT22;13825;53.496;10.020;2023-04-15T22:47:50;8.00;99.90
26051;DHT22;13825;53.496;10.020;2023-04-15T22:50:30;7.90;99.90
26051;DHT22;13825;53.496;10.020;2023-04-15T22:53:02;8.00;99.90
26051;DHT22;13825;53.496;10.020;2023-04-15T22:55:33;8.00;99.90
26051;DHT22;13825;53.496;10.020;2023-04-15T22:58:09;8.00;99.90
26051;DHT22;13825;53.496;10.020;2023-04-15T23:00:55;8.00;99.90
26051;DHT22;13825;53.496;10.020;2023-04-15T23:03:26;7.90;99.90
26051;DHT22;13825;53.496;10.020;2023-04-15T23:05:59;7.90;99.90
26051;DHT22;13825;53.496;10.020;2023-04-15T23:08:34;7.90;99.90
26051;DHT22;13825;53.496;10.020;2023-04-15T23:11:15;7.90;99.90
26051;DHT22;13825;53.496;10.020;2023-04-15T23:13:51;7.80;99.90
26051;DHT22;13825;53.496;10.020;2023-04-15T23:16:52;8.00;99.90
26051;DHT22;13825;53.496;10.020;2023-04-15T23:19:38;8.00;99.90
26051;DHT22;13825;53.496;10.020;2023-04-15T23:22:23;8.00;99.90
26051;DHT22;13825;53.496;10.020;2023-04-15T23:28:26;8.20;99.90
26051;DHT22;13825;53.496;10.020;2023-04-15T23:30:59;8.10;99.90
26051;DHT22;13825;53.496;10.020;2023-04-15T23:33:52;8.00;99.90
26051;DHT22;13825;53.496;10.020;2023-04-15T23:36:34;7.90;99.90
26051;DHT22;13825;53.496;10.020;2023-04-15T23:39:16;7.90;99.90
26051;DHT22;13825;53.496;10.020;2023-04-15T23:41:51;7.80;99.90
26051;DHT22;13825;53.496;10.020;2023-04-15T23:44:34;7.80;99.90
26051;DHT22;13825;53.496;10.020;2023-04-15T23:47:20;7.90;99.90
26051;DHT22;13825;53.496;10.020;2023-04-15T23:50:13;7.90;99.90
26051;DHT22;13825;53.496;10.020;2023-04-15T23:53:07;7.90;99.90
